sensor_id;sensor_type;location;lat;lon;timestamp;pressure;altitude;pressure_sealevel;temperature;humidity
26697;BME280;14312;52.614;13.496;2023-02-12T00:02:16;102659.75;;;10.46;77.16
26697;BME280;14312;52.614;13.496;2023-02-12T00:05:02;102667.13;;;10.44;77.03
26697;BME280;14312;52.614;13.496;2023-02-12T00:07:49;102667.13;;;10.44;77.27
26697;BME280;14312;52.614;13.496;2023-02-12T00:10:39;102679.81;;;10.42;77.14
26697;BME280;14312;52.614;13.496;2023-02-12T00:13:25;102685.13;;;10.42;77.13
26697;BME280;14312;52.614;13.496;2023-02-12T00:16:14;102687.16;;;10.40;77.15
26697;BME280;14312;52.614;13.496;2023-02-12T00:19:00;102688.81;;;10.41;77.12
26697;BME280;14312;52.614;13.496;2023-02-12T00:21:46;102696.16;;;10.39;77.10
26697;BME280;14312;52.614;13.496;2023-02-12T00:24:32;102701.50;;;10.39;76.90
26697;BME280;14312;52.614;13.496;2023-02-12T00:27:18;102704.16;;;10.39;77.15
26697;BME280;14312;52.614;13.496;2023-02-12T00:30:04;102702.31;;;10.40;77.36
26697;BME280;14312;52.614;13.496;2023-02-12T00:32:51;102698.81;;;10.39;77.22
26697;BME280;14312;52.614;13.496;2023-02-12T00:35:37;102691.22;;;10.36;77.20
26697;BME280;14312;52.614;13.496;2023-02-12T00:38:22;102698.22;;;10.37;77.15
26697;BME280;14312;52.614;13.496;2023-02-12T00:41:09;102703.53;;;10.37;77.16
26697;BME280;14312;52.614;13.496;2023-02-12T00:43:55;102701.88;;;10.36;76.93
26697;BME280;14312;52.614;13.496;2023-02-12T00:46:41;102707.22;;;10.36;77.13
26697;BME280;14312;52.614;13.496;2023-02-12T00:49:31;102705.56;;;10.35;77.07
26697;BME280;14312;52.614;13.496;2023-02-12T00:52:20;102703.06;;;10.34;77.16
26697;BME280;14312;52.614;13.496;2023-02-12T00:55:06;102709.59;;;10.31;76.98
26697;BME280;14312;52.614;13.496;2023-02-12T00:57:52;102706.94;;;10.31;77.18
26697;BME280;14312;52.614;13.496;2023-02-12T01:00:38;102713.25;;;10.30;76.96
26697;BME280;14312;52.614;13.496;2023-02-12T01:03:24;102711.63;;;10.29;77.03
26697;BME280;14312;52.614;13.496;2023-02-12T01:06:10;102716.97;;;10.29;77.08
26697;BME280;14312;52.614;13.496;2023-02-12T01:08:56;102717.31;;;10.26;77.05
26697;BME280;14312;52.614;13.496;2023-02-12T01:11:42;102713.19;;;10.24;76.97
26697;BME280;14312;52.614;13.496;2023-02-12T01:14:28;102723.00;;;10.23;76.87
26697;BME280;14312;52.614;13.496;2023-02-12T01:17:14;102725.06;;;10.21;77.27
26697;BME280;14312;52.614;13.496;2023-02-12T01:20:00;102723.41;;;10.20;77.11
26697;BME280;14312;52.614;13.496;2023-02-12T01:22:46;102731.56;;;10.18;77.36
26697;BME280;14312;52.614;13.496;2023-02-12T01:25:32;102728.22;;;10.16;77.11
26697;BME280;14312;52.614;13.496;2023-02-12T01:28:18;102732.72;;;10.16;77.08
26697;BME280;14312;52.614;13.496;2023-02-12T01:31:13;102735.41;;;10.16;77.23
26697;BME280;14312;52.614;13.496;2023-02-12T01:34:00;102738.44;;;10.13;76.94
26697;BME280;14312;52.614;13.496;2023-02-12T01:36:46;102738.44;;;10.13;77.07
26697;BME280;14312;52.614;13.496;2023-02-12T01:39:32;102746.63;;;10.11;77.30
26697;BME280;14312;52.614;13.496;2023-02-12T01:42:18;102747.44;;;10.12;77.05
26697;BME280;14312;52.614;13.496;2023-02-12T01:47:59;102746.78;;;10.10;77.17
26697;BME280;14312;52.614;13.496;2023-02-12T01:50:46;102751.94;;;10.11;77.18
26697;BME280;14312;52.614;13.496;2023-02-12T01:53:37;102761.78;;;10.11;77.26
26697;BME280;14312;52.614;13.496;2023-02-12T01:56:25;102758.28;;;10.10;77.21
26697;BME280;14312;52.614;13.496;2023-02-12T01:59:11;102753.13;;;10.09;77.19
26697;BME280;14312;52.614;13.496;2023-02-12T02:01:57;102754.78;;;10.10;77.11
26697;BME280;14312;52.614;13.496;2023-02-12T02:04:47;102763.78;;;10.09;77.26
26697;BME280;14312;52.614;13.496;2023-02-12T02:07:35;102765.81;;;10.07;77.33
26697;BME280;14312;52.614;13.496;2023-02-12T02:10:21;102764.16;;;10.06;77.17
26697;BME280;14312;52.614;13.496;2023-02-12T02:13:07;102776.66;;;10.05;77.32
26697;BME280;14312;52.614;13.496;2023-02-12T02:16:20;102782.16;;;10.04;77.13
26697;BME280;14312;52.614;13.496;2023-02-12T02:22:17;102780.50;;;10.03;77.45
26697;BME280;14312;52.614;13.496;2023-02-12T02:25:25;102782.53;;;10.01;77.14
26697;BME280;14312;52.614;13.496;2023-02-12T02:31:17;102779.88;;;10.01;77.49
26697;BME280;14312;52.614;13.496;2023-02-12T02:37:26;102771.06;;;10.00;77.24
26697;BME280;14312;52.614;13.496;2023-02-12T02:40:13;102773.50;;;10.02;77.32
26697;BME280;14312;52.614;13.496;2023-02-12T02:43:10;102771.88;;;10.01;77.20
26697;BME280;14312;52.614;13.496;2023-02-12T02:46:29;102765.53;;;10.02;76.84
26697;BME280;14312;52.614;13.496;2023-02-12T02:49:26;102777.22;;;10.01;77.35
26697;BME280;14312;52.614;13.496;2023-02-12T02:52:19;102785.22;;;10.01;77.09
26697;BME280;14312;52.614;13.496;2023-02-12T02:55:08;102783.38;;;10.01;77.20
26697;BME280;14312;52.614;13.496;2023-02-12T02:58:02;102785.22;;;10.01;77.21
26697;BME280;14312;52.614;13.496;2023-02-12T03:00:57;102789.50;;;10.02;77.42
26697;BME280;14312;52.614;13.496;2023-02-12T03:04:00;102789.50;;;10.02;77.01
26697;BME280;14312;52.614;13.496;2023-02-12T03:06:53;102793.19;;;10.01;77.21
26697;BME280;14312;52.614;13.496;2023-02-12T03:09:44;102794.03;;;10.01;77.33
26697;BME280;14312;52.614;13.496;2023-02-12T03:12:43;102798.53;;;10.01;76.98
26697;BME280;14312;52.614;13.496;2023-02-12T03:15:40;102802.19;;;10.00;77.16
26697;BME280;14312;52.614;13.496;2023-02-12T03:18:34;102802.19;;;10.00;77.14
26697;BME280;14312;52.614;13.496;2023-02-12T03:21:27;102806.50;;;10.01;76.93
26697;BME280;14312;52.614;13.496;2023-02-12T03:24:35;102818.16;;;10.00;77.13
26697;BME280;14312;52.614;13.496;2023-02-12T03:27:33;102818.34;;;9.98;77.17
26697;BME280;14312;52.614;13.496;2023-02-12T03:30:22;102816.50;;;9.99;77.08
26697;BME280;14312;52.614;13.496;2023-02-12T03:33:19;102813.19;;;9.97;76.78
26697;BME280;14312;52.614;13.496;2023-02-12T03:39:27;102817.69;;;9.96;77.08
26697;BME280;14312;52.614;13.496;2023-02-12T03:42:30;102816.88;;;9.96;76.76
26697;BME280;14312;52.614;13.496;2023-02-12T03:48:21;102824.84;;;9.96;77.02
26697;BME280;14312;52.614;13.496;2023-02-12T03:51:22;102832.00;;;9.95;76.94
26697;BME280;14312;52.614;13.496;2023-02-12T03:54:12;102833.84;;;9.95;77.14
26697;BME280;14312;52.614;13.496;2023-02-12T03:57:04;102835.50;;;9.96;77.29
26697;BME280;14312;52.614;13.496;2023-02-12T03:59:52;102832.00;;;9.95;77.22
26697;BME280;14312;52.614;13.496;2023-02-12T04:02:38;102838.16;;;9.96;77.25
26697;BME280;14312;52.614;13.496;2023-02-12T04:05:26;102848.81;;;9.96;77.14
26697;BME280;14312;52.614;13.496;2023-02-12T04:08:12;102843.50;;;9.96;77.42
26697;BME280;14312;52.614;13.496;2023-02-12T04:11:19;102852.13;;;9.98;76.82
26697;BME280;14312;52.614;13.496;2023-02-12T04:17:21;102851.88;;;9.93;76.83
26697;BME280;14312;52.614;13.496;2023-02-12T04:23:46;102856.38;;;9.92;77.20
26697;BME280;14312;52.614;13.496;2023-02-12T04:27:08;102854.53;;;9.93;76.65
26697;BME280;14312;52.614;13.496;2023-02-12T04:32:54;102852.22;;;9.90;76.88
26697;BME280;14312;52.614;13.496;2023-02-12T04:35:48;102854.88;;;9.90;77.21
26697;BME280;14312;52.614;13.496;2023-02-12T04:38:40;102860.03;;;9.91;77.24
26697;BME280;14312;52.614;13.496;2023-02-12T04:41:29;102864.34;;;9.92;77.29
26697;BME280;14312;52.614;13.496;2023-02-12T04:44:27;102860.69;;;9.93;76.99
26697;BME280;14312;52.614;13.496;2023-02-12T04:47:14;102859.84;;;9.93;77.44
26697;BME280;14312;52.614;13.496;2023-02-12T04:50:00;102854.53;;;9.93;77.16
26697;BME280;14312;52.614;13.496;2023-02-12T04:52:46;102862.34;;;9.94;77.18
26697;BME280;14312;52.614;13.496;2023-02-12T04:55:32;102856.19;;;9.94;76.97
26697;BME280;14312;52.614;13.496;2023-02-12T04:58:19;102862.34;;;9.94;77.17
26697;BME280;14312;52.614;13.496;2023-02-12T05:01:05;102860.69;;;9.93;76.99
26697;BME280;14312;52.614;13.496;2023-02-12T05:03:51;102856.53;;;9.91;77.04
26697;BME280;14312;52.614;13.496;2023-02-12T05:06:38;102859.84;;;9.93;76.96
26697;BME280;14312;52.614;13.496;2023-02-12T05:09:24;102859.84;;;9.93;76.92
26697;BME280;14312;52.614;13.496;2023-02-12T05:12:10;102856.53;;;9.91;76.96
26697;BME280;14312;52.614;13.496;2023-02-12T05:14:57;102854.53;;;9.93;76.97
26697;BME280;14312;52.614;13.496;2023-02-12T05:17:43;102859.19;;;9.91;76.92
26697;BME280;14312;52.614;13.496;2023-02-12T05:20:30;102866.34;;;9.90;76.92
26697;BME280;14312;52.614;13.496;2023-02-12T05:23:16;102871.50;;;9.92;76.95
26697;BME280;14312;52.614;13.496;2023-02-12T05:26:04;102873.16;;;9.93;76.81
26697;BME280;14312;52.614;13.496;2023-02-12T05:28:51;102874.19;;;9.92;77.01
26697;BME280;14312;52.614;13.496;2023-02-12T05:31:37;102877.00;;;9.90;76.94
26697;BME280;14312;52.614;13.496;2023-02-12T05:34:23;102875.19;;;9.91;77.20
26697;BME280;14312;52.614;13.496;2023-02-12T05:37:09;102870.84;;;9.90;76.74
26697;BME280;14312;52.614;13.496;2023-02-12T05:39:54;102876.19;;;9.90;76.85
26697;BME280;14312;52.614;13.496;2023-02-12T05:42:40;102873.69;;;9.88;76.91
26697;BME280;14312;52.614;13.496;2023-02-12T05:45:27;102873.91;;;9.87;76.92
26697;BME280;14312;52.614;13.496;2023-02-12T05:48:13;102874.06;;;9.85;76.58
26697;BME280;14312;52.614;13.496;2023-02-12T05:51:12;102874.41;;;9.82;76.76
26697;BME280;14312;52.614;13.496;2023-02-12T05:54:01;102868.25;;;9.81;76.65
26697;BME280;14312;52.614;13.496;2023-02-12T05:56:48;102880.94;;;9.79;76.90
26697;BME280;14312;52.614;13.496;2023-02-12T05:59:34;102883.94;;;9.76;76.74
26697;BME280;14312;52.614;13.496;2023-02-12T06:02:20;102881.28;;;9.76;76.64
26697;BME280;14312;52.614;13.496;2023-02-12T06:05:06;102883.28;;;9.74;76.85
26697;BME280;14312;52.614;13.496;2023-02-12T06:07:52;102885.31;;;9.72;76.75
26697;BME280;14312;52.614;13.496;2023-02-12T06:10:38;102887.34;;;9.70;76.88
26697;BME280;14312;52.614;13.496;2023-02-12T06:13:24;102896.31;;;9.69;76.85
26697;BME280;14312;52.614;13.496;2023-02-12T06:16:26;102895.31;;;9.70;77.02
26697;BME280;14312;52.614;13.496;2023-02-12T06:19:12;102899.16;;;9.68;77.24
26697;BME280;14312;52.614;13.496;2023-02-12T06:21:59;102910.63;;;9.68;77.11
26697;BME280;14312;52.614;13.496;2023-02-12T06:24:45;102914.28;;;9.67;77.01
26697;BME280;14312;52.614;13.496;2023-02-12T06:27:31;102916.78;;;9.69;77.00
26697;BME280;14312;52.614;13.496;2023-02-12T06:30:17;102915.97;;;9.68;77.14
26697;BME280;14312;52.614;13.496;2023-02-12T06:33:03;102914.28;;;9.67;77.11
26697;BME280;14312;52.614;13.496;2023-02-12T06:35:49;102923.28;;;9.66;76.88
26697;BME280;14312;52.614;13.496;2023-02-12T06:38:35;102933.94;;;9.66;77.23
26697;BME280;14312;52.614;13.496;2023-02-12T06:41:21;102951.56;;;9.67;77.01
26697;BME280;14312;52.614;13.496;2023-02-12T06:44:11;102944.56;;;9.66;76.93
26697;BME280;14312;52.614;13.496;2023-02-12T06:46:57;102946.25;;;9.67;77.36
26697;BME280;14312;52.614;13.496;2023-02-12T06:49:43;102947.06;;;9.68;77.54
26697;BME280;14312;52.614;13.496;2023-02-12T06:52:29;102947.91;;;9.68;77.57
26697;BME280;14312;52.614;13.496;2023-02-12T06:55:15;102958.56;;;9.68;77.53
26697;BME280;14312;52.614;13.496;2023-02-12T06:58:03;102955.72;;;9.70;77.43
26697;BME280;14312;52.614;13.496;2023-02-12T07:00:49;102950.22;;;9.71;77.40
26697;BME280;14312;52.614;13.496;2023-02-12T07:03:34;102952.88;;;9.71;77.11
26697;BME280;14312;52.614;13.496;2023-02-12T07:06:22;102966.81;;;9.73;77.34
26697;BME280;14312;52.614;13.496;2023-02-12T07:09:09;102958.66;;;9.75;77.34
26697;BME280;14312;52.614;13.496;2023-02-12T07:11:57;102958.66;;;9.75;77.26
26697;BME280;14312;52.614;13.496;2023-02-12T07:14:43;102970.16;;;9.75;77.40
26697;BME280;14312;52.614;13.496;2023-02-12T07:17:29;102965.81;;;9.74;77.20
26697;BME280;14312;52.614;13.496;2023-02-12T07:20:15;102970.16;;;9.75;77.25
26697;BME280;14312;52.614;13.496;2023-02-12T07:23:01;102974.47;;;9.76;77.50
26697;BME280;14312;52.614;13.496;2023-02-12T07:25:58;102980.47;;;9.78;77.42
26697;BME280;14312;52.614;13.496;2023-02-12T07:28:44;102973.47;;;9.77;77.49
26697;BME280;14312;52.614;13.496;2023-02-12T07:31:30;102975.59;;;9.82;77.34
26697;BME280;14312;52.614;13.496;2023-02-12T07:34:16;102979.75;;;9.85;77.49
26697;BME280;14312;52.614;13.496;2023-02-12T07:37:02;102984.69;;;9.88;77.49
26697;BME280;14312;52.614;13.496;2023-02-12T07:39:48;102984.38;;;9.91;77.62
26697;BME280;14312;52.614;13.496;2023-02-12T07:42:34;102982.00;;;9.96;77.68
26697;BME280;14312;52.614;13.496;2023-02-12T07:45:20;102986.97;;;9.99;77.34
26697;BME280;14312;52.614;13.496;2023-02-12T07:48:06;102984.59;;;10.04;77.60
26697;BME280;14312;52.614;13.496;2023-02-12T07:50:52;102992.88;;;10.09;77.63
26697;BME280;14312;52.614;13.496;2023-02-12T07:53:38;102994.19;;;10.13;77.65
26697;BME280;14312;52.614;13.496;2023-02-12T07:56:27;102979.53;;;10.17;77.44
26697;BME280;14312;52.614;13.496;2023-02-12T07:59:18;102991.50;;;10.21;77.44
26697;BME280;14312;52.614;13.496;2023-02-12T08:02:04;102987.81;;;10.22;77.28
26697;BME280;14312;52.614;13.496;2023-02-12T08:04:54;102992.78;;;10.25;77.25
26697;BME280;14312;52.614;13.496;2023-02-12T08:07:40;102999.78;;;10.26;76.92
26697;BME280;14312;52.614;13.496;2023-02-12T08:10:26;103002.25;;;10.28;77.05
26697;BME280;14312;52.614;13.496;2023-02-12T08:13:12;103007.59;;;10.28;76.90
26697;BME280;14312;52.614;13.496;2023-02-12T08:16:03;103006.75;;;10.27;77.16
26697;BME280;14312;52.614;13.496;2023-02-12T08:18:49;103014.38;;;10.30;77.22
26697;BME280;14312;52.614;13.496;2023-02-12T08:21:35;103018.69;;;10.31;77.14
26697;BME280;14312;52.614;13.496;2023-02-12T08:24:22;103014.03;;;10.33;77.10
26697;BME280;14312;52.614;13.496;2023-02-12T08:27:08;103020.03;;;10.35;77.30
26697;BME280;14312;52.614;13.496;2023-02-12T08:29:54;103014.69;;;10.35;77.15
26697;BME280;14312;52.614;13.496;2023-02-12T08:32:40;103023.97;;;10.39;77.23
26697;BME280;14312;52.614;13.496;2023-02-12T08:35:26;103022.97;;;10.40;77.26
26697;BME280;14312;52.614;13.496;2023-02-12T08:38:12;103019.97;;;10.43;77.18
26697;BME280;14312;52.614;13.496;2023-02-12T08:41:10;103029.22;;;10.47;76.78
26697;BME280;14312;52.614;13.496;2023-02-12T08:43:59;103033.56;;;10.48;77.00
26697;BME280;14312;52.614;13.496;2023-02-12T08:46:48;103037.88;;;10.49;77.09
26697;BME280;14312;52.614;13.496;2023-02-12T08:49:35;103035.88;;;10.51;76.98
26697;BME280;14312;52.614;13.496;2023-02-12T08:52:21;103041.84;;;10.53;77.13
26697;BME280;14312;52.614;13.496;2023-02-12T08:55:07;103043.16;;;10.57;77.01
26697;BME280;14312;52.614;13.496;2023-02-12T08:57:53;103052.81;;;10.58;77.02
26697;BME280;14312;52.614;13.496;2023-02-12T09:00:42;103052.44;;;10.62;77.09
26697;BME280;14312;52.614;13.496;2023-02-12T09:03:28;103062.94;;;10.63;76.66
26697;BME280;14312;52.614;13.496;2023-02-12T09:06:16;103058.03;;;10.67;76.74
26697;BME280;14312;52.614;13.496;2023-02-12T09:09:02;103055.88;;;10.70;76.91
26697;BME280;14312;52.614;13.496;2023-02-12T09:11:48;103072.31;;;10.74;77.06
26697;BME280;14312;52.614;13.496;2023-02-12T09:14:35;103071.13;;;10.76;76.93
26697;BME280;14312;52.614;13.496;2023-02-12T09:17:21;103067.91;;;10.81;76.71
26697;BME280;14312;52.614;13.496;2023-02-12T09:20:12;103073.91;;;10.83;76.71
26697;BME280;14312;52.614;13.496;2023-02-12T09:22:58;103081.56;;;10.86;76.69
26697;BME280;14312;52.614;13.496;2023-02-12T09:25:45;103078.50;;;10.89;76.86
26697;BME280;14312;52.614;13.496;2023-02-12T09:28:31;103086.16;;;10.92;76.93
26697;BME280;14312;52.614;13.496;2023-02-12T09:31:26;103082.94;;;10.96;76.55
26697;BME280;14312;52.614;13.496;2023-02-12T09:34:12;103083.41;;;11.00;77.03
26697;BME280;14312;52.614;13.496;2023-02-12T09:36:58;103089.69;;;11.07;76.83
26697;BME280;14312;52.614;13.496;2023-02-12T09:39:43;103088.94;;;11.13;76.78
26697;BME280;14312;52.614;13.496;2023-02-12T09:45:24;103092.16;;;11.23;76.82
26697;BME280;14312;52.614;13.496;2023-02-12T09:51:13;103093.72;;;11.32;76.50
26697;BME280;14312;52.614;13.496;2023-02-12T09:54:03;103094.22;;;11.36;76.33
26697;BME280;14312;52.614;13.496;2023-02-12T09:57:00;103098.31;;;11.38;76.08
26697;BME280;14312;52.614;13.496;2023-02-12T09:59:57;103095.84;;;11.37;75.71
26697;BME280;14312;52.614;13.496;2023-02-12T10:02:43;103095.03;;;11.36;76.08
26697;BME280;14312;52.614;13.496;2023-02-12T10:06:10;103098.31;;;11.38;75.13
26697;BME280;14312;52.614;13.496;2023-02-12T10:12:23;103102.75;;;11.31;75.52
26697;BME280;14312;52.614;13.496;2023-02-12T10:15:33;103096.13;;;11.27;75.62
26697;BME280;14312;52.614;13.496;2023-02-12T10:18:38;103101.47;;;11.27;75.76
26697;BME280;14312;52.614;13.496;2023-02-12T10:27:38;103096.13;;;11.27;75.93
26697;BME280;14312;52.614;13.496;2023-02-12T10:30:42;103087.13;;;11.28;75.75
26697;BME280;14312;52.614;13.496;2023-02-12T10:33:34;103090.13;;;11.25;76.26
26697;BME280;14312;52.614;13.496;2023-02-12T10:36:40;103090.78;;;11.27;76.02
26697;BME280;14312;52.614;13.496;2023-02-12T10:39:52;103091.44;;;11.29;76.52
26697;BME280;14312;52.614;13.496;2023-02-12T10:42:50;103099.06;;;11.32;76.56
26697;BME280;14312;52.614;13.496;2023-02-12T10:45:38;103102.38;;;11.34;76.70
26697;BME280;14312;52.614;13.496;2023-02-12T10:48:39;103093.38;;;11.35;76.45
26697;BME280;14312;52.614;13.496;2023-02-12T10:54:51;103094.66;;;11.39;76.44
26697;BME280;14312;52.614;13.496;2023-02-12T10:57:37;103093.00;;;11.38;76.30
26697;BME280;14312;52.614;13.496;2023-02-12T11:00:36;103090.16;;;11.40;76.35
26697;BME280;14312;52.614;13.496;2023-02-12T11:03:27;103084.81;;;11.40;76.15
26697;BME280;14312;52.614;13.496;2023-02-12T11:06:19;103091.97;;;11.39;76.27
26697;BME280;14312;52.614;13.496;2023-02-12T11:09:26;103096.31;;;11.41;75.93
26697;BME280;14312;52.614;13.496;2023-02-12T11:12:35;103094.22;;;11.36;76.09
26697;BME280;14312;52.614;13.496;2023-02-12T11:15:24;103093.72;;;11.32;75.78
26697;BME280;14312;52.614;13.496;2023-02-12T11:18:20;103092.44;;;11.28;76.00
26697;BME280;14312;52.614;13.496;2023-02-12T11:21:09;103093.63;;;11.26;76.37
26697;BME280;14312;52.614;13.496;2023-02-12T11:23:55;103097.50;;;11.23;76.31
26697;BME280;14312;52.614;13.496;2023-02-12T11:26:41;103089.47;;;11.23;76.59
26697;BME280;14312;52.614;13.496;2023-02-12T11:29:27;103087.66;;;11.24;76.76
26697;BME280;14312;52.614;13.496;2023-02-12T11:32:18;103087.47;;;11.25;76.69
26697;BME280;14312;52.614;13.496;2023-02-12T11:38:00;103085.81;;;11.24;76.78
26697;BME280;14312;52.614;13.496;2023-02-12T11:40:47;103087.84;;;11.22;76.65
26697;BME280;14312;52.614;13.496;2023-02-12T11:43:34;103082.53;;;11.22;76.68
26697;BME280;14312;52.614;13.496;2023-02-12T11:46:26;103089.88;;;11.20;76.56
26697;BME280;14312;52.614;13.496;2023-02-12T11:49:19;103074.88;;;11.19;76.65
26697;BME280;14312;52.614;13.496;2023-02-12T11:52:06;103081.22;;;11.18;76.44
26697;BME280;14312;52.614;13.496;2023-02-12T11:54:58;103082.41;;;11.16;76.67
26697;BME280;14312;52.614;13.496;2023-02-12T11:57:49;103086.94;;;11.15;76.73
26697;BME280;14312;52.614;13.496;2023-02-12T12:04:03;103083.59;;;11.13;76.56
26697;BME280;14312;52.614;13.496;2023-02-12T12:07:00;103085.63;;;11.11;76.65
26697;BME280;14312;52.614;13.496;2023-02-12T12:09:59;103076.78;;;11.11;76.65
26697;BME280;14312;52.614;13.496;2023-02-12T12:12:51;103072.47;;;11.10;77.00
26697;BME280;14312;52.614;13.496;2023-02-12T12:15:43;103063.91;;;11.14;76.85
26697;BME280;14312;52.614;13.496;2023-02-12T12:18:57;103076.53;;;11.20;77.17
26697;BME280;14312;52.614;13.496;2023-02-12T12:22:22;103063.44;;;11.25;76.72
26697;BME280;14312;52.614;13.496;2023-02-12T12:25:48;103058.03;;;11.33;77.02
26697;BME280;14312;52.614;13.496;2023-02-12T12:28:54;103054.03;;;11.44;77.70
26697;BME280;14312;52.614;13.496;2023-02-12T12:31:45;103045.66;;;11.62;78.03
26697;BME280;14312;52.614;13.496;2023-02-12T12:34:31;103035.28;;;11.88;78.63
26697;BME280;14312;52.614;13.496;2023-02-12T12:37:39;103041.16;;;12.41;78.65
26697;BME280;14312;52.614;13.496;2023-02-12T12:40:41;103035.00;;;13.03;78.58
26697;BME280;14312;52.614;13.496;2023-02-12T12:43:35;103042.13;;;13.64;78.02
26697;BME280;14312;52.614;13.496;2023-02-12T12:49:33;103031.53;;;14.30;74.17
26697;BME280;14312;52.614;13.496;2023-02-12T12:56:15;103027.19;;;14.16;71.81
26697;BME280;14312;52.614;13.496;2023-02-12T13:02:37;103040.97;;;13.87;71.91
26697;BME280;14312;52.614;13.496;2023-02-12T13:05:53;103040.50;;;13.63;70.97
26697;BME280;14312;52.614;13.496;2023-02-12T13:14:43;103028.94;;;13.15;72.26
26697;BME280;14312;52.614;13.496;2023-02-12T13:17:43;103031.31;;;13.04;72.45
26697;BME280;14312;52.614;13.496;2023-02-12T13:20:44;103032.50;;;12.94;72.66
26697;BME280;14312;52.614;13.496;2023-02-12T13:26:57;103029.09;;;12.79;72.89
26697;BME280;14312;52.614;13.496;2023-02-12T13:29:48;103029.88;;;12.73;73.19
26697;BME280;14312;52.614;13.496;2023-02-12T13:32:40;103021.63;;;12.68;73.62
26697;BME280;14312;52.614;13.496;2023-02-12T13:35:29;103020.38;;;12.64;74.15
26697;BME280;14312;52.614;13.496;2023-02-12T13:38:24;103016.88;;;12.64;73.86
26697;BME280;14312;52.614;13.496;2023-02-12T13:41:11;103017.47;;;12.66;74.41
26697;BME280;14312;52.614;13.496;2023-02-12T13:47:50;103001.47;;;12.72;73.56
26697;BME280;14312;52.614;13.496;2023-02-12T13:57:20;103008.94;;;12.77;74.17
26697;BME280;14312;52.614;13.496;2023-02-12T14:03:31;103001.16;;;12.88;74.27
26697;BME280;14312;52.614;13.496;2023-02-12T14:06:19;103005.72;;;12.94;74.10
26697;BME280;14312;52.614;13.496;2023-02-12T14:09:08;103004.31;;;12.99;73.74
26697;BME280;14312;52.614;13.496;2023-02-12T14:11:55;103003.31;;;13.00;73.74
26697;BME280;14312;52.614;13.496;2023-02-12T14:14:44;102995.06;;;13.01;73.54
26697;BME280;14312;52.614;13.496;2023-02-12T14:20:34;102998.38;;;13.03;72.60
26697;BME280;14312;52.614;13.496;2023-02-12T14:23:27;102998.56;;;13.02;72.77
26697;BME280;14312;52.614;13.496;2023-02-12T14:26:19;102991.56;;;13.01;72.87
26697;BME280;14312;52.614;13.496;2023-02-12T14:29:17;103004.94;;;13.01;72.75
26697;BME280;14312;52.614;13.496;2023-02-12T14:35:35;102995.44;;;12.91;72.83
26697;BME280;14312;52.614;13.496;2023-02-12T14:41:35;102998.63;;;12.80;73.03
26697;BME280;14312;52.614;13.496;2023-02-12T14:50:18;103002.88;;;12.68;73.04
26697;BME280;14312;52.614;13.496;2023-02-12T14:53:25;103009.25;;;12.67;72.13
26697;BME280;14312;52.614;13.496;2023-02-12T14:56:12;103002.66;;;12.63;73.10
26697;BME280;14312;52.614;13.496;2023-02-12T14:58:59;102997.50;;;12.62;73.41
26697;BME280;14312;52.614;13.496;2023-02-12T15:01:49;103001.00;;;12.62;73.37
26697;BME280;14312;52.614;13.496;2023-02-12T15:04:37;103004.69;;;12.61;73.38
26697;BME280;14312;52.614;13.496;2023-02-12T15:07:29;102999.34;;;12.61;72.92
26697;BME280;14312;52.614;13.496;2023-02-12T15:10:19;103000.16;;;12.62;73.28
26697;BME280;14312;52.614;13.496;2023-02-12T15:13:22;103002.66;;;12.63;72.71
26697;BME280;14312;52.614;13.496;2023-02-12T15:16:37;103007.19;;;12.63;72.42
26697;BME280;14312;52.614;13.496;2023-02-12T15:22:22;103008.38;;;12.60;72.94
26697;BME280;14312;52.614;13.496;2023-02-12T15:25:30;103007.38;;;12.61;72.74
26697;BME280;14312;52.614;13.496;2023-02-12T15:28:21;103006.91;;;12.57;72.99
26697;BME280;14312;52.614;13.496;2023-02-12T15:31:09;103014.13;;;12.57;73.10
26697;BME280;14312;52.614;13.496;2023-02-12T15:33:57;103014.13;;;12.57;73.09
26697;BME280;14312;52.614;13.496;2023-02-12T15:36:44;103014.50;;;12.54;73.14
26697;BME280;14312;52.614;13.496;2023-02-12T15:39:38;103023.56;;;12.53;72.98
26697;BME280;14312;52.614;13.496;2023-02-12T15:51:06;103021.66;;;12.47;72.65
26697;BME280;14312;52.614;13.496;2023-02-12T15:53:53;103024.72;;;12.44;73.38
26697;BME280;14312;52.614;13.496;2023-02-12T15:56:40;103023.88;;;12.43;73.29
26697;BME280;14312;52.614;13.496;2023-02-12T15:59:26;103026.78;;;12.42;73.34
26697;BME280;14312;52.614;13.496;2023-02-12T16:02:24;103017.47;;;12.38;72.86
26697;BME280;14312;52.614;13.496;2023-02-12T16:05:13;103023.81;;;12.37;73.17
26697;BME280;14312;52.614;13.496;2023-02-12T16:08:00;103029.19;;;12.37;73.50
26697;BME280;14312;52.614;13.496;2023-02-12T16:10:48;103025.88;;;12.35;73.53
26697;BME280;14312;52.614;13.496;2023-02-12T16:13:35;103039.44;;;12.33;73.51
26697;BME280;14312;52.614;13.496;2023-02-12T16:16:27;103036.94;;;12.32;73.32
26697;BME280;14312;52.614;13.496;2023-02-12T16:19:28;103035.28;;;12.31;73.07
26697;BME280;14312;52.614;13.496;2023-02-12T16:22:16;103043.50;;;12.29;73.39
26697;BME280;14312;52.614;13.496;2023-02-12T16:25:20;103038.38;;;12.28;73.20
26697;BME280;14312;52.614;13.496;2023-02-12T16:28:14;103031.56;;;12.25;73.31
26697;BME280;14312;52.614;13.496;2023-02-12T16:31:11;103034.41;;;12.24;73.37
26697;BME280;14312;52.614;13.496;2023-02-12T16:33:57;103042.63;;;12.22;73.42
26697;BME280;14312;52.614;13.496;2023-02-12T16:36:46;103050.84;;;12.21;73.39
26697;BME280;14312;52.614;13.496;2023-02-12T16:45:38;103050.97;;;12.12;73.19